»·PEaware :: N8027F KGJT-KPGA

N8027F :: KGJT-KPGA

FLIGHT INFORMATION

Flight Status: Arrived
Operator: Privately registered:
United States
More flights under this callsign
Pilot: Timothy C. (14537)
Aircraft: BEECH AIRCRAFT SUPER KING AIR COMMUTER
(BE20)
More flights by this aircraft type
Origin: KGJT Walker
United States
Destination: KPGA Page Mun
United States
More flights between these airports :: More routes between these airports
Route:
File this flight plan on PilotEdge
Remarks:
Altitude:
(Current/Filed)
15,500ft
Speed:
(Current/Filed)
220kts
Departed: 12-Nov-17 10:56 AM
Arrived: 12-Nov-17 11:53 AM
Distance/Time
Traveled:
191nm/0:56
Distance/Time
To Go:
Arrived

Flight Plot

Page will automatically refresh every two minutes.

Flight plan parsing failed; only flown route is shown


Map Options




Map Legend


Flown Route
Filed Route
Departure Airport
Arrival Airport
Navaid (VOR, NDB)
Fix

Horizontal Profiles

Position Reports

Time Latitude Longitude Heading Altitude Ground
Speed
12-Nov-17 10:36 39.124775 -108.531534 33 4861ft 0kts
12-Nov-17 10:37 39.124775 -108.531534 33 4861ft 0kts
12-Nov-17 10:38 39.124775 -108.531534 33 4861ft 0kts
12-Nov-17 10:39 39.124775 -108.531534 33 4861ft 0kts
12-Nov-17 10:40 39.124775 -108.531534 33 4861ft 0kts
12-Nov-17 10:41 39.124775 -108.531534 33 4861ft 0kts
12-Nov-17 10:42 39.124775 -108.531534 33 4861ft 0kts
12-Nov-17 10:43 39.124775 -108.531534 33 4861ft 0kts
12-Nov-17 10:44 39.124775 -108.531534 33 4861ft 0kts
12-Nov-17 10:45 39.124775 -108.531534 33 4861ft 0kts
12-Nov-17 10:46 39.124775 -108.531534 33 4861ft 0kts
12-Nov-17 10:47 39.124775 -108.531534 33 4861ft 0kts
12-Nov-17 10:48 39.124775 -108.531534 33 4861ft 0kts
12-Nov-17 10:49 39.124775 -108.531534 33 4861ft 0kts
12-Nov-17 10:50 39.124775 -108.531534 33 4861ft 0kts
12-Nov-17 10:51 39.124775 -108.531534 33 4861ft 0kts
12-Nov-17 10:52 39.124775 -108.531534 33 4861ft 0kts
12-Nov-17 10:53 39.124775 -108.531534 33 4861ft 0kts
12-Nov-17 10:54 39.124775 -108.531534 33 4861ft 0kts
12-Nov-17 10:55 39.124775 -108.531534 33 4861ft 0kts
12-Nov-17 10:56 39.124775 -108.531534 33 4861ft 0kts
12-Nov-17 10:57 39.126447 -108.531291 304 4861ft 10kts
12-Nov-17 10:58 39.128301 -108.534619 305 4861ft 12kts
12-Nov-17 10:59 39.130556 -108.538726 306 4860ft 15kts
12-Nov-17 11:00 39.133155 -108.543413 305 4861ft 16kts
12-Nov-17 11:01 39.133707 -108.542095 124 4861ft 70kts
12-Nov-17 11:02 39.111444 -108.504928 146 6499ft 147kts
12-Nov-17 11:03 39.076856 -108.520156 215 8607ft 151kts
12-Nov-17 11:04 39.044607 -108.552075 236 10762ft 166kts
12-Nov-17 11:05 39.023219 -108.601483 244 13127ft 167kts
12-Nov-17 11:06 38.998081 -108.649929 237 15040ft 180kts
12-Nov-17 11:07 38.967177 -108.704707 239 15570ft 224kts
12-Nov-17 11:08 38.936195 -108.775869 239 15520ft 247kts
12-Nov-17 11:09 38.894369 -108.843042 230 15509ft 254kts
12-Nov-17 11:10 38.847458 -108.908824 229 15506ft 256kts
12-Nov-17 11:11 38.799634 -108.974790 229 15504ft 257kts
12-Nov-17 11:12 38.752340 -109.039750 229 15504ft 257kts
12-Nov-17 11:13 38.704391 -109.105437 229 15476ft 258kts
12-Nov-17 11:14 38.656187 -109.171360 229 15475ft 257kts
12-Nov-17 11:15 38.608097 -109.236966 229 15475ft 257kts
12-Nov-17 11:16 38.559910 -109.302745 229 15475ft 257kts
12-Nov-17 11:17 38.511973 -109.367798 229 15474ft 257kts
12-Nov-17 11:18 38.463376 -109.433622 229 15474ft 257kts
12-Nov-17 11:19 38.415179 -109.498808 229 15474ft 257kts
12-Nov-17 11:20 38.366467 -109.564559 229 15473ft 256kts
12-Nov-17 11:21 38.319355 -109.628026 229 15473ft 256kts
12-Nov-17 11:22 38.271742 -109.692012 229 15478ft 257kts
12-Nov-17 11:23 38.223545 -109.756797 228 15478ft 258kts
12-Nov-17 11:24 38.175017 -109.821965 228 15476ft 257kts
12-Nov-17 11:25 38.126624 -109.886479 228 15563ft 254kts
12-Nov-17 11:26 38.078558 -109.950484 228 15586ft 256kts
12-Nov-17 11:27 38.029978 -110.015130 228 15574ft 256kts
12-Nov-17 11:28 37.981030 -110.080118 228 15519ft 258kts
12-Nov-17 11:29 37.932141 -110.144906 228 15566ft 255kts
12-Nov-17 11:30 37.883714 -110.208957 228 15513ft 257kts
12-Nov-17 11:31 37.834870 -110.273506 228 15512ft 257kts
12-Nov-17 11:32 37.785626 -110.338377 228 15512ft 258kts
12-Nov-17 11:33 37.734756 -110.399138 203 15536ft 261kts
12-Nov-17 11:34 37.665202 -110.423641 199 15586ft 262kts
12-Nov-17 11:35 37.595853 -110.447310 199 15531ft 265kts
12-Nov-17 11:36 37.525839 -110.471273 199 15501ft 264kts
12-Nov-17 11:37 37.456050 -110.495098 199 15501ft 263kts
12-Nov-17 11:38 37.386234 -110.518876 199 15501ft 263kts
12-Nov-17 11:39 37.316463 -110.542630 199 15412ft 266kts
12-Nov-17 11:40 37.246000 -110.566697 199 15481ft 260kts
12-Nov-17 11:41 37.194323 -110.609182 228 14947ft 206kts
12-Nov-17 11:42 37.156149 -110.657645 223 13912ft 197kts
12-Nov-17 11:43 37.115450 -110.700782 220 12676ft 193kts
12-Nov-17 11:44 37.074094 -110.741648 219 11468ft 192kts
12-Nov-17 11:45 37.035295 -110.783182 222 10885ft 184kts
12-Nov-17 11:46 36.999260 -110.827271 228 10812ft 183kts
12-Nov-17 11:47 36.972791 -110.879805 246 10747ft 186kts
12-Nov-17 11:48 36.956999 -110.940604 255 10587ft 187kts
12-Nov-17 11:49 36.946288 -111.002789 248 10628ft 180kts
12-Nov-17 11:50 36.931226 -111.062860 253 10510ft 187kts
12-Nov-17 11:51 36.920310 -111.125835 256 10442ft 186kts
12-Nov-17 11:52 36.910868 -111.189078 258 10356ft 187kts
12-Nov-17 11:53 36.900899 -111.252621 255 10135ft 193kts
12-Nov-17 11:54 36.889744 -111.316926 258 9089ft 186kts
12-Nov-17 11:55 36.886086 -111.380866 270 7174ft 182kts
12-Nov-17 11:56 36.895617 -111.430919 296 5340ft 112kts
12-Nov-17 11:57 36.917907 -111.446393 349 4337ft 91kts
12-Nov-17 11:58 36.922024 -111.448951 208 4316ft 8kts
12-Nov-17 11:59 36.922233 -111.448884 352 4316ft 0kts
12-Nov-17 12:00 36.922292 -111.448895 351 4316ft 0kts
12-Nov-17 12:01 36.922291 -111.448895 351 4316ft 0kts

Navigation Log

Ident Type
Flight plan parsing failed, navigation log unavailable